sensor_id;sensor_type;location;lat;lon;timestamp;pressure;altitude;pressure_sealevel;temperature;humidity
11676;BME280;5894;42.768;23.404;2022-10-15T00:01:12;95917.63;;;13.50;100.00
11676;BME280;5894;42.768;23.404;2022-10-15T00:03:42;95915.03;;;13.58;100.00
11676;BME280;5894;42.768;23.404;2022-10-15T00:06:11;95903.34;;;13.59;100.00
11676;BME280;5894;42.768;23.404;2022-10-15T00:08:38;95903.16;;;13.56;100.00
11676;BME280;5894;42.768;23.404;2022-10-15T00:11:08;95918.13;;;13.60;100.00
11676;BME280;5894;42.768;23.404;2022-10-15T00:13:35;95874.78;;;13.39;100.00
11676;BME280;5894;42.768;23.404;2022-10-15T00:16:03;95856.88;;;13.36;100.00
11676;BME280;5894;42.768;23.404;2022-10-15T00:18:30;95897.25;;;13.68;100.00
11676;BME280;5894;42.768;23.404;2022-10-15T00:20:58;95905.19;;;13.68;100.00
11676;BME280;5894;42.768;23.404;2022-10-15T00:23:25;95883.66;;;13.60;100.00
11676;BME280;5894;42.768;23.404;2022-10-15T00:26:00;95896.78;;;13.66;100.00
11676;BME280;5894;42.768;23.404;2022-10-15T00:28:27;95891.31;;;13.62;100.00
11676;BME280;5894;42.768;23.404;2022-10-15T00:30:59;95891.47;;;13.57;100.00
11676;BME280;5894;42.768;23.404;2022-10-15T00:33:26;95891.16;;;13.58;100.00
11676;BME280;5894;42.768;23.404;2022-10-15T00:35:59;95888.97;;;13.60;100.00
11676;BME280;5894;42.768;23.404;2022-10-15T00:38:27;95883.53;;;13.57;100.00
11676;BME280;5894;42.768;23.404;2022-10-15T00:40:54;95880.09;;;13.65;100.00
11676;BME280;5894;42.768;23.404;2022-10-15T00:43:36;95879.47;;;13.59;100.00
11676;BME280;5894;42.768;23.404;2022-10-15T00:46:04;95882.13;;;13.59;100.00
11676;BME280;5894;42.768;23.404;2022-10-15T00:48:32;95880.09;;;13.56;100.00
11676;BME280;5894;42.768;23.404;2022-10-15T00:51:01;95869.34;;;13.53;100.00
11676;BME280;5894;42.768;23.404;2022-10-15T00:53:29;95871.53;;;13.59;100.00
11676;BME280;5894;42.768;23.404;2022-10-15T00:55:57;95877.59;;;13.69;100.00
11676;BME280;5894;42.768;23.404;2022-10-15T00:58:28;95874.00;;;13.73;100.00
11676;BME280;5894;42.768;23.404;2022-10-15T01:00:56;95874.94;;;13.77;100.00
11676;BME280;5894;42.768;23.404;2022-10-15T01:03:24;95884.59;;;13.73;100.00
11676;BME280;5894;42.768;23.404;2022-10-15T01:05:51;95871.22;;;13.70;100.00
11676;BME280;5894;42.768;23.404;2022-10-15T01:08:20;95828.34;;;13.42;100.00
11676;BME280;5894;42.768;23.404;2022-10-15T01:10:53;95868.56;;;13.70;100.00
11676;BME280;5894;42.768;23.404;2022-10-15T01:13:32;95844.56;;;13.49;100.00
11676;BME280;5894;42.768;23.404;2022-10-15T01:16:06;95874.78;;;13.74;100.00
11676;BME280;5894;42.768;23.404;2022-10-15T01:18:38;95841.59;;;13.59;100.00
11676;BME280;5894;42.768;23.404;2022-10-15T01:21:12;95871.69;;;13.80;100.00
11676;BME280;5894;42.768;23.404;2022-10-15T01:27:17;95870.13;;;13.79;100.00
11676;BME280;5894;42.768;23.404;2022-10-15T01:29:57;95867.13;;;13.81;100.00
11676;BME280;5894;42.768;23.404;2022-10-15T01:32:34;95862.78;;;13.76;100.00
11676;BME280;5894;42.768;23.404;2022-10-15T01:35:08;95821.81;;;13.31;100.00
11676;BME280;5894;42.768;23.404;2022-10-15T01:37:42;95874.47;;;13.75;100.00
11676;BME280;5894;42.768;23.404;2022-10-15T01:40:14;95868.09;;;13.76;100.00
11676;BME280;5894;42.768;23.404;2022-10-15T01:42:49;95826.63;;;13.54;100.00
11676;BME280;5894;42.768;23.404;2022-10-15T01:45:24;95865.25;;;13.81;100.00
11676;BME280;5894;42.768;23.404;2022-10-15T01:48:15;95870.25;;;13.74;100.00
11676;BME280;5894;42.768;23.404;2022-10-15T01:50:49;95873.38;;;13.76;100.00
11676;BME280;5894;42.768;23.404;2022-10-15T01:53:21;95801.88;;;13.33;100.00
11676;BME280;5894;42.768;23.404;2022-10-15T01:55:52;95867.31;;;13.76;100.00
11676;BME280;5894;42.768;23.404;2022-10-15T01:58:22;95869.47;;;13.74;100.00
11676;BME280;5894;42.768;23.404;2022-10-15T02:00:51;95870.25;;;13.74;100.00
11676;BME280;5894;42.768;23.404;2022-10-15T02:03:20;95870.25;;;13.74;100.00
11676;BME280;5894;42.768;23.404;2022-10-15T02:05:49;95869.16;;;13.75;100.00
11676;BME280;5894;42.768;23.404;2022-10-15T02:08:23;95869.47;;;13.74;100.00
11676;BME280;5894;42.768;23.404;2022-10-15T02:10:55;95857.81;;;13.66;100.00
11676;BME280;5894;42.768;23.404;2022-10-15T02:13:31;95870.09;;;13.71;100.00
11676;BME280;5894;42.768;23.404;2022-10-15T02:16:07;95867.00;;;13.69;100.00
11676;BME280;5894;42.768;23.404;2022-10-15T02:18:43;95846.28;;;13.53;100.00
11676;BME280;5894;42.768;23.404;2022-10-15T02:21:15;95871.66;;;13.72;100.00
11676;BME280;5894;42.768;23.404;2022-10-15T02:23:47;95869.78;;;13.72;100.00
11676;BME280;5894;42.768;23.404;2022-10-15T02:26:17;95861.06;;;13.72;100.00
11676;BME280;5894;42.768;23.404;2022-10-15T02:28:49;95766.94;;;13.05;100.00
11676;BME280;5894;42.768;23.404;2022-10-15T02:31:18;95878.69;;;13.76;100.00
11676;BME280;5894;42.768;23.404;2022-10-15T02:33:49;95874.16;;;13.77;100.00
11676;BME280;5894;42.768;23.404;2022-10-15T02:36:18;95875.09;;;13.72;100.00
11676;BME280;5894;42.768;23.404;2022-10-15T02:38:46;95870.09;;;13.71;100.00
11676;BME280;5894;42.768;23.404;2022-10-15T02:41:15;95876.34;;;13.66;100.00
11676;BME280;5894;42.768;23.404;2022-10-15T02:43:42;95832.72;;;13.38;100.00
11676;BME280;5894;42.768;23.404;2022-10-15T02:46:11;95874.94;;;13.60;100.00
11676;BME280;5894;42.768;23.404;2022-10-15T02:48:41;95864.81;;;13.53;100.00
11676;BME280;5894;42.768;23.404;2022-10-15T02:51:09;95872.63;;;13.58;100.00
11676;BME280;5894;42.768;23.404;2022-10-15T02:53:37;95873.41;;;13.59;100.00
11676;BME280;5894;42.768;23.404;2022-10-15T02:56:04;95862.63;;;13.55;100.00
11676;BME280;5894;42.768;23.404;2022-10-15T02:58:32;95871.38;;;13.56;100.00
11676;BME280;5894;42.768;23.404;2022-10-15T03:01:00;95864.81;;;13.53;100.00
11676;BME280;5894;42.768;23.404;2022-10-15T03:03:27;95873.25;;;13.55;100.00
11676;BME280;5894;42.768;23.404;2022-10-15T03:05:54;95875.72;;;13.52;100.00
11676;BME280;5894;42.768;23.404;2022-10-15T03:08:22;95874.63;;;13.53;100.00
11676;BME280;5894;42.768;23.404;2022-10-15T03:10:49;95877.16;;;13.49;100.00
11676;BME280;5894;42.768;23.404;2022-10-15T03:13:16;95869.34;;;13.44;100.00
11676;BME280;5894;42.768;23.404;2022-10-15T03:15:49;95870.72;;;13.42;100.00
11676;BME280;5894;42.768;23.404;2022-10-15T03:18:16;95861.38;;;13.36;100.00
11676;BME280;5894;42.768;23.404;2022-10-15T03:20:44;95861.84;;;13.29;100.00
11676;BME280;5894;42.768;23.404;2022-10-15T03:23:18;95860.44;;;13.32;100.00
11676;BME280;5894;42.768;23.404;2022-10-15T03:25:46;95868.25;;;13.28;100.00
11676;BME280;5894;42.768;23.404;2022-10-15T03:28:20;95866.22;;;13.34;100.00
11676;BME280;5894;42.768;23.404;2022-10-15T03:30:47;95876.19;;;13.37;100.00
11676;BME280;5894;42.768;23.404;2022-10-15T03:33:15;95883.97;;;13.33;100.00
11676;BME280;5894;42.768;23.404;2022-10-15T03:35:42;95872.13;;;13.31;100.00
11676;BME280;5894;42.768;23.404;2022-10-15T03:38:10;95886.00;;;13.36;100.00
11676;BME280;5894;42.768;23.404;2022-10-15T03:40:37;95870.72;;;13.33;100.00
11676;BME280;5894;42.768;23.404;2022-10-15T03:43:28;95878.69;;;13.33;100.00
11676;BME280;5894;42.768;23.404;2022-10-15T03:46:00;95881.03;;;13.35;100.00
11676;BME280;5894;42.768;23.404;2022-10-15T03:48:28;95884.44;;;13.35;100.00
11676;BME280;5894;42.768;23.404;2022-10-15T03:50:55;95879.94;;;13.36;100.00
11676;BME280;5894;42.768;23.404;2022-10-15T03:53:22;95822.22;;;12.98;100.00
11676;BME280;5894;42.768;23.404;2022-10-15T03:55:49;95878.38;;;13.43;100.00
11676;BME280;5894;42.768;23.404;2022-10-15T03:58:16;95896.78;;;13.48;100.00
11676;BME280;5894;42.768;23.404;2022-10-15T04:00:52;95882.09;;;13.51;100.00
11676;BME280;5894;42.768;23.404;2022-10-15T04:03:19;95888.50;;;13.50;100.00
11676;BME280;5894;42.768;23.404;2022-10-15T04:05:49;95885.41;;;13.48;100.00
11676;BME280;5894;42.768;23.404;2022-10-15T04:08:17;95887.56;;;13.54;100.00
11676;BME280;5894;42.768;23.404;2022-10-15T04:10:45;95897.09;;;13.55;100.00
11676;BME280;5894;42.768;23.404;2022-10-15T04:13:12;95893.81;;;13.58;100.00
11676;BME280;5894;42.768;23.404;2022-10-15T04:15:40;95893.47;;;13.60;100.00
11676;BME280;5894;42.768;23.404;2022-10-15T04:18:11;95893.47;;;13.60;100.00
11676;BME280;5894;42.768;23.404;2022-10-15T04:20:39;95891.16;;;13.58;100.00
11676;BME280;5894;42.768;23.404;2022-10-15T04:23:12;95894.44;;;13.55;100.00
11676;BME280;5894;42.768;23.404;2022-10-15T04:25:43;95886.00;;;13.53;100.00
11676;BME280;5894;42.768;23.404;2022-10-15T04:28:11;95891.63;;;13.52;100.00
11676;BME280;5894;42.768;23.404;2022-10-15T04:30:38;95886.63;;;13.50;100.00
11676;BME280;5894;42.768;23.404;2022-10-15T04:33:08;95884.63;;;13.39;100.00
11676;BME280;5894;42.768;23.404;2022-10-15T04:35:36;95889.59;;;13.40;100.00
11676;BME280;5894;42.768;23.404;2022-10-15T04:38:09;95893.47;;;13.34;100.00
11676;BME280;5894;42.768;23.404;2022-10-15T04:40:59;95899.88;;;13.33;100.00
11676;BME280;5894;42.768;23.404;2022-10-15T04:43:36;95893.78;;;13.24;100.00
11676;BME280;5894;42.768;23.404;2022-10-15T04:46:07;95872.69;;;13.02;100.00
11676;BME280;5894;42.768;23.404;2022-10-15T04:48:36;95895.03;;;13.18;100.00
11676;BME280;5894;42.768;23.404;2022-10-15T04:51:11;95892.31;;;13.09;100.00
11676;BME280;5894;42.768;23.404;2022-10-15T04:54:17;95903.69;;;13.10;100.00
11676;BME280;5894;42.768;23.404;2022-10-15T04:56:59;95903.25;;;13.08;100.00
11676;BME280;5894;42.768;23.404;2022-10-15T04:59:26;95877.47;;;12.91;100.00
11676;BME280;5894;42.768;23.404;2022-10-15T05:02:16;95901.19;;;12.96;100.00
11676;BME280;5894;42.768;23.404;2022-10-15T05:04:47;95902.56;;;12.94;100.00
11676;BME280;5894;42.768;23.404;2022-10-15T05:07:15;95899.47;;;13.00;100.00
11676;BME280;5894;42.768;23.404;2022-10-15T05:09:43;95897.44;;;12.97;100.00
11676;BME280;5894;42.768;23.404;2022-10-15T05:12:10;95907.25;;;12.97;100.00
11676;BME280;5894;42.768;23.404;2022-10-15T05:14:37;95905.53;;;13.01;100.00
11676;BME280;5894;42.768;23.404;2022-10-15T05:17:08;95910.03;;;13.00;100.00
11676;BME280;5894;42.768;23.404;2022-10-15T05:19:39;95907.41;;;13.00;100.00
11676;BME280;5894;42.768;23.404;2022-10-15T05:22:12;95911.31;;;13.03;100.00
11676;BME280;5894;42.768;23.404;2022-10-15T05:24:46;95915.22;;;13.05;100.00
11676;BME280;5894;42.768;23.404;2022-10-15T05:27:42;95910.03;;;13.00;100.00
11676;BME280;5894;42.768;23.404;2022-10-15T05:30:10;95916.78;;;13.06;100.00
11676;BME280;5894;42.768;23.404;2022-10-15T05:32:45;95909.91;;;13.05;100.00
11676;BME280;5894;42.768;23.404;2022-10-15T05:35:15;95920.22;;;13.07;100.00
11676;BME280;5894;42.768;23.404;2022-10-15T05:37:51;95925.16;;;13.08;100.00
11676;BME280;5894;42.768;23.404;2022-10-15T05:40:20;95919.25;;;13.03;100.00
11676;BME280;5894;42.768;23.404;2022-10-15T05:42:59;95917.69;;;13.02;100.00
11676;BME280;5894;42.768;23.404;2022-10-15T05:45:26;95938.75;;;13.07;100.00
11676;BME280;5894;42.768;23.404;2022-10-15T05:47:55;95940.13;;;13.04;100.00
11676;BME280;5894;42.768;23.404;2022-10-15T05:50:22;95939.53;;;13.07;100.00
11676;BME280;5894;42.768;23.404;2022-10-15T05:52:53;95943.31;;;13.15;100.00
11676;BME280;5894;42.768;23.404;2022-10-15T05:55:38;95940.94;;;13.13;100.00
11676;BME280;5894;42.768;23.404;2022-10-15T05:58:06;95950.00;;;13.21;100.00
11676;BME280;5894;42.768;23.404;2022-10-15T06:00:33;95901.59;;;12.90;100.00
11676;BME280;5894;42.768;23.404;2022-10-15T06:03:00;95953.91;;;13.15;100.00
11676;BME280;5894;42.768;23.404;2022-10-15T06:05:27;95947.22;;;13.17;100.00
11676;BME280;5894;42.768;23.404;2022-10-15T06:07:55;95948.31;;;13.16;100.00
11676;BME280;5894;42.768;23.404;2022-10-15T06:10:22;95954.41;;;13.26;100.00
11676;BME280;5894;42.768;23.404;2022-10-15T06:12:50;95955.19;;;13.26;100.00
11676;BME280;5894;42.768;23.404;2022-10-15T06:15:17;95955.19;;;13.26;100.00
11676;BME280;5894;42.768;23.404;2022-10-15T06:17:44;95959.38;;;13.27;100.00
11676;BME280;5894;42.768;23.404;2022-10-15T06:20:12;95959.09;;;13.29;100.00
11676;BME280;5894;42.768;23.404;2022-10-15T06:22:38;95963.63;;;13.37;100.00
11676;BME280;5894;42.768;23.404;2022-10-15T06:25:06;95965.97;;;13.38;100.00
11676;BME280;5894;42.768;23.404;2022-10-15T06:27:33;95967.66;;;13.43;100.00
11676;BME280;5894;42.768;23.404;2022-10-15T06:30:02;95967.53;;;13.48;100.00
11676;BME280;5894;42.768;23.404;2022-10-15T06:32:29;95976.09;;;13.53;100.00
11676;BME280;5894;42.768;23.404;2022-10-15T06:34:56;95979.06;;;13.60;100.00
11676;BME280;5894;42.768;23.404;2022-10-15T06:37:23;95988.44;;;13.58;100.00
11676;BME280;5894;42.768;23.404;2022-10-15T06:39:52;95994.34;;;13.64;100.00
11676;BME280;5894;42.768;23.404;2022-10-15T06:42:19;95992.81;;;13.71;100.00
11676;BME280;5894;42.768;23.404;2022-10-15T06:44:46;95981.59;;;13.74;100.00
11676;BME280;5894;42.768;23.404;2022-10-15T06:47:17;95982.66;;;13.73;100.00
11676;BME280;5894;42.768;23.404;2022-10-15T06:49:46;95990.97;;;13.80;100.00
11676;BME280;5894;42.768;23.404;2022-10-15T06:52:12;95989.53;;;13.83;100.00
11676;BME280;5894;42.768;23.404;2022-10-15T06:54:40;95987.84;;;13.87;100.00
11676;BME280;5894;42.768;23.404;2022-10-15T06:57:09;95989.09;;;13.89;100.00
11676;BME280;5894;42.768;23.404;2022-10-15T06:59:38;95999.84;;;13.93;100.00
11676;BME280;5894;42.768;23.404;2022-10-15T07:02:05;95995.47;;;13.88;100.00
11676;BME280;5894;42.768;23.404;2022-10-15T07:04:33;95993.13;;;13.95;100.00
11676;BME280;5894;42.768;23.404;2022-10-15T07:07:00;96002.50;;;14.02;100.00
11676;BME280;5894;42.768;23.404;2022-10-15T07:09:28;95996.88;;;14.03;100.00
11676;BME280;5894;42.768;23.404;2022-10-15T07:11:55;95997.34;;;14.05;100.00
11676;BME280;5894;42.768;23.404;2022-10-15T07:14:21;96004.06;;;14.11;100.00
11676;BME280;5894;42.768;23.404;2022-10-15T07:16:49;96003.44;;;14.14;100.00
11676;BME280;5894;42.768;23.404;2022-10-15T07:19:16;96009.69;;;14.10;100.00
11676;BME280;5894;42.768;23.404;2022-10-15T07:21:44;96007.81;;;14.10;100.00
11676;BME280;5894;42.768;23.404;2022-10-15T07:24:12;96003.75;;;14.13;100.00
11676;BME280;5894;42.768;23.404;2022-10-15T07:26:39;95998.59;;;14.16;100.00
11676;BME280;5894;42.768;23.404;2022-10-15T07:29:06;96000.78;;;14.14;100.00
11676;BME280;5894;42.768;23.404;2022-10-15T07:31:33;95995.47;;;14.14;100.00
11676;BME280;5894;42.768;23.404;2022-10-15T07:34:00;95993.47;;;14.20;100.00
11676;BME280;5894;42.768;23.404;2022-10-15T07:36:26;95993.59;;;14.23;100.00
11676;BME280;5894;42.768;23.404;2022-10-15T07:38:54;95996.56;;;14.30;100.00
11676;BME280;5894;42.768;23.404;2022-10-15T07:41:21;95998.75;;;14.28;100.00
11676;BME280;5894;42.768;23.404;2022-10-15T07:43:50;95998.28;;;14.35;100.00
11676;BME280;5894;42.768;23.404;2022-10-15T07:46:17;96002.19;;;14.46;100.00
11676;BME280;5894;42.768;23.404;2022-10-15T07:48:44;96002.97;;;14.47;100.00
11676;BME280;5894;42.768;23.404;2022-10-15T07:51:10;95998.13;;;14.49;100.00
11676;BME280;5894;42.768;23.404;2022-10-15T07:53:38;95998.59;;;14.51;100.00
11676;BME280;5894;42.768;23.404;2022-10-15T07:56:07;95998.41;;;14.56;100.00
11676;BME280;5894;42.768;23.404;2022-10-15T07:58:36;95998.88;;;14.58;100.00
11676;BME280;5894;42.768;23.404;2022-10-15T08:01:04;96004.19;;;14.58;100.00
11676;BME280;5894;42.768;23.404;2022-10-15T08:03:31;96007.13;;;14.65;100.00
11676;BME280;5894;42.768;23.404;2022-10-15T08:05:58;96009.34;;;14.72;100.00
11676;BME280;5894;42.768;23.404;2022-10-15T08:08:27;96004.00;;;14.80;100.00
11676;BME280;5894;42.768;23.404;2022-10-15T08:10:53;96001.16;;;14.85;100.00
11676;BME280;5894;42.768;23.404;2022-10-15T08:13:22;96001.63;;;14.87;100.00
11676;BME280;5894;42.768;23.404;2022-10-15T08:15:53;96018.31;;;14.96;100.00
11676;BME280;5894;42.768;23.404;2022-10-15T08:18:20;96005.75;;;15.05;100.00
11676;BME280;5894;42.768;23.404;2022-10-15T08:20:47;96009.97;;;15.06;100.00
11676;BME280;5894;42.768;23.404;2022-10-15T08:23:15;95948.44;;;14.66;99.46
11676;BME280;5894;42.768;23.404;2022-10-15T08:25:42;95940.31;;;14.72;100.00
11676;BME280;5894;42.768;23.404;2022-10-15T08:28:11;95997.00;;;15.14;100.00
11676;BME280;5894;42.768;23.404;2022-10-15T08:30:39;95999.16;;;15.20;100.00
11676;BME280;5894;42.768;23.404;2022-10-15T08:33:10;95995.22;;;15.26;100.00
11676;BME280;5894;42.768;23.404;2022-10-15T08:35:40;96003.00;;;15.31;100.00
11676;BME280;5894;42.768;23.404;2022-10-15T08:38:08;95983.47;;;15.27;100.00
11676;BME280;5894;42.768;23.404;2022-10-15T08:40:35;95990.78;;;15.39;100.00
11676;BME280;5894;42.768;23.404;2022-10-15T08:43:02;95988.91;;;15.39;100.00
11676;BME280;5894;42.768;23.404;2022-10-15T08:45:34;95986.25;;;15.39;100.00
11676;BME280;5894;42.768;23.404;2022-10-15T08:48:10;95985.41;;;15.48;100.00
11676;BME280;5894;42.768;23.404;2022-10-15T08:50:40;95990.09;;;15.51;100.00
11676;BME280;5894;42.768;23.404;2022-10-15T08:53:12;95978.81;;;15.54;100.00
11676;BME280;5894;42.768;23.404;2022-10-15T08:55:42;95983.66;;;15.60;100.00
11676;BME280;5894;42.768;23.404;2022-10-15T08:58:13;95971.81;;;15.49;98.07
11676;BME280;5894;42.768;23.404;2022-10-15T09:00:45;95995.38;;;15.59;96.82
11676;BME280;5894;42.768;23.404;2022-10-15T09:03:24;95985.81;;;15.67;98.25
11676;BME280;5894;42.768;23.404;2022-10-15T09:05:59;95990.78;;;15.68;99.52
11676;BME280;5894;42.768;23.404;2022-10-15T09:08:30;95991.38;;;15.74;99.41
11676;BME280;5894;42.768;23.404;2022-10-15T09:11:01;95999.81;;;15.76;98.66
11676;BME280;5894;42.768;23.404;2022-10-15T09:13:33;95986.22;;;15.77;100.00
11676;BME280;5894;42.768;23.404;2022-10-15T09:16:11;95998.38;;;15.78;98.04
11676;BME280;5894;42.768;23.404;2022-10-15T09:18:41;95988.09;;;15.77;100.00
11676;BME280;5894;42.768;23.404;2022-10-15T09:21:09;95997.41;;;15.83;100.00
11676;BME280;5894;42.768;23.404;2022-10-15T09:23:38;95986.94;;;15.87;100.00
11676;BME280;5894;42.768;23.404;2022-10-15T09:26:17;95988.28;;;15.93;100.00
11676;BME280;5894;42.768;23.404;2022-10-15T09:28:52;95994.84;;;15.95;98.51
11676;BME280;5894;42.768;23.404;2022-10-15T09:31:24;95986.06;;;15.95;99.51
11676;BME280;5894;42.768;23.404;2022-10-15T09:33:57;95983.34;;;16.03;99.98
11676;BME280;5894;42.768;23.404;2022-10-15T09:36:35;95987.69;;;16.08;99.17
11676;BME280;5894;42.768;23.404;2022-10-15T09:39:25;95986.63;;;16.21;95.70
11676;BME280;5894;42.768;23.404;2022-10-15T09:42:03;95980.47;;;16.29;94.42
11676;BME280;5894;42.768;23.404;2022-10-15T09:44:37;95979.63;;;16.37;93.74
11676;BME280;5894;42.768;23.404;2022-10-15T09:47:14;95949.19;;;16.26;89.57
11676;BME280;5894;42.768;23.404;2022-10-15T09:49:43;95977.41;;;16.51;88.76
11676;BME280;5894;42.768;23.404;2022-10-15T09:52:16;95971.56;;;16.58;88.06
11676;BME280;5894;42.768;23.404;2022-10-15T09:54:50;95974.09;;;16.55;86.14
11676;BME280;5894;42.768;23.404;2022-10-15T09:57:22;95972.34;;;16.59;87.59
11676;BME280;5894;42.768;23.404;2022-10-15T09:59:54;95970.59;;;16.63;88.20
11676;BME280;5894;42.768;23.404;2022-10-15T10:02:23;95935.25;;;16.41;89.27
11676;BME280;5894;42.768;23.404;2022-10-15T10:04:52;95979.72;;;16.74;87.91
11676;BME280;5894;42.768;23.404;2022-10-15T10:07:30;95980.09;;;16.84;88.16
11676;BME280;5894;42.768;23.404;2022-10-15T10:10:00;95990.13;;;17.00;87.66
11676;BME280;5894;42.768;23.404;2022-10-15T10:12:31;95991.56;;;17.09;81.49
11676;BME280;5894;42.768;23.404;2022-10-15T10:15:02;95983.00;;;17.16;83.23
11676;BME280;5894;42.768;23.404;2022-10-15T10:17:30;95987.44;;;17.24;78.60
11676;BME280;5894;42.768;23.404;2022-10-15T10:20:15;95985.34;;;17.30;75.84
11676;BME280;5894;42.768;23.404;2022-10-15T10:22:44;95985.47;;;17.33;75.45
11676;BME280;5894;42.768;23.404;2022-10-15T10:25:30;95984.00;;;17.36;74.34
11676;BME280;5894;42.768;23.404;2022-10-15T10:28:04;95981.78;;;17.38;75.31
11676;BME280;5894;42.768;23.404;2022-10-15T10:30:37;95986.13;;;17.42;72.45
11676;BME280;5894;42.768;23.404;2022-10-15T10:33:11;95982.78;;;17.45;71.11
11676;BME280;5894;42.768;23.404;2022-10-15T10:35:46;95995.44;;;17.48;70.95
11676;BME280;5894;42.768;23.404;2022-10-15T10:38:22;95977.75;;;17.56;71.22
11676;BME280;5894;42.768;23.404;2022-10-15T10:40:50;95979.31;;;17.57;74.41
11676;BME280;5894;42.768;23.404;2022-10-15T10:43:23;95975.78;;;17.65;73.48
11676;BME280;5894;42.768;23.404;2022-10-15T10:45:55;95973.22;;;17.69;69.74
11676;BME280;5894;42.768;23.404;2022-10-15T10:48:24;95969.25;;;17.75;70.00
11676;BME280;5894;42.768;23.404;2022-10-15T10:51:08;95964.75;;;17.79;69.11
11676;BME280;5894;42.768;23.404;2022-10-15T10:53:44;95961.31;;;17.78;69.70
11676;BME280;5894;42.768;23.404;2022-10-15T10:56:13;95953.22;;;17.75;69.41
11676;BME280;5894;42.768;23.404;2022-10-15T10:58:42;95974.88;;;17.85;67.94
11676;BME280;5894;42.768;23.404;2022-10-15T11:01:11;95961.66;;;17.77;65.89
11676;BME280;5894;42.768;23.404;2022-10-15T11:03:40;95961.09;;;17.83;67.19
11676;BME280;5894;42.768;23.404;2022-10-15T11:06:32;95956.44;;;17.80;66.64
11676;BME280;5894;42.768;23.404;2022-10-15T11:09:14;95952.97;;;17.80;65.57
11676;BME280;5894;42.768;23.404;2022-10-15T11:11:53;95949.88;;;17.78;65.31
11676;BME280;5894;42.768;23.404;2022-10-15T11:14:30;95961.44;;;17.70;65.24
11676;BME280;5894;42.768;23.404;2022-10-15T11:17:03;95970.91;;;17.67;66.64
11676;BME280;5894;42.768;23.404;2022-10-15T11:19:39;95946.03;;;17.63;66.01
11676;BME280;5894;42.768;23.404;2022-10-15T11:22:31;95953.25;;;17.63;66.33
11676;BME280;5894;42.768;23.404;2022-10-15T11:25:07;95949.09;;;17.65;65.57
11676;BME280;5894;42.768;23.404;2022-10-15T11:27:48;95950.09;;;17.60;65.73
11676;BME280;5894;42.768;23.404;2022-10-15T11:30:33;95948.56;;;17.59;67.59
11676;BME280;5894;42.768;23.404;2022-10-15T11:33:12;95947.31;;;17.57;68.25
11676;BME280;5894;42.768;23.404;2022-10-15T11:35:48;95947.56;;;17.52;67.58
11676;BME280;5894;42.768;23.404;2022-10-15T11:38:26;95946.56;;;17.44;68.83
11676;BME280;5894;42.768;23.404;2022-10-15T11:41:13;95946.03;;;17.39;69.14
11676;BME280;5894;42.768;23.404;2022-10-15T11:43:54;95947.38;;;17.33;68.25
11676;BME280;5894;42.768;23.404;2022-10-15T11:46:27;95950.91;;;17.37;68.65
11676;BME280;5894;42.768;23.404;2022-10-15T11:49:07;95925.03;;;17.25;67.59
11676;BME280;5894;42.768;23.404;2022-10-15T11:51:53;95942.38;;;17.31;68.95
11676;BME280;5894;42.768;23.404;2022-10-15T11:54:34;95947.03;;;17.22;69.60
11676;BME280;5894;42.768;23.404;2022-10-15T11:57:07;95944.91;;;17.15;69.71
11676;BME280;5894;42.768;23.404;2022-10-15T11:59:39;95943.16;;;17.07;69.74
11676;BME280;5894;42.768;23.404;2022-10-15T12:02:12;95945.59;;;17.12;69.07
11676;BME280;5894;42.768;23.404;2022-10-15T12:04:41;95952.81;;;17.12;69.77
11676;BME280;5894;42.768;23.404;2022-10-15T12:07:14;95953.69;;;17.16;69.65
11676;BME280;5894;42.768;23.404;2022-10-15T12:09:48;95954.47;;;17.16;69.64
11676;BME280;5894;42.768;23.404;2022-10-15T12:12:25;95950.47;;;17.10;70.19
11676;BME280;5894;42.768;23.404;2022-10-15T12:15:09;95947.94;;;17.02;71.65
11676;BME280;5894;42.768;23.404;2022-10-15T12:17:46;95954.38;;;17.01;71.34
11676;BME280;5894;42.768;23.404;2022-10-15T12:20:15;95955.81;;;16.98;71.64
11676;BME280;5894;42.768;23.404;2022-10-15T12:22:54;95959.38;;;17.02;71.15
11676;BME280;5894;42.768;23.404;2022-10-15T12:25:43;95950.25;;;17.03;71.70
11676;BME280;5894;42.768;23.404;2022-10-15T12:28:14;95954.78;;;17.03;71.93
11676;BME280;5894;42.768;23.404;2022-10-15T12:30:42;95953.81;;;17.07;73.47
11676;BME280;5894;42.768;23.404;2022-10-15T12:33:25;95946.25;;;17.09;73.19
11676;BME280;5894;42.768;23.404;2022-10-15T12:35:56;95937.03;;;16.95;72.67
11676;BME280;5894;42.768;23.404;2022-10-15T12:38:29;95944.59;;;17.05;71.65
11676;BME280;5894;42.768;23.404;2022-10-15T12:41:00;95942.69;;;17.05;72.77
11676;BME280;5894;42.768;23.404;2022-10-15T12:43:32;95937.50;;;17.09;72.26
11676;BME280;5894;42.768;23.404;2022-10-15T12:46:01;95934.03;;;17.08;71.97
11676;BME280;5894;42.768;23.404;2022-10-15T12:48:32;95943.94;;;17.08;71.28
11676;BME280;5894;42.768;23.404;2022-10-15T12:54:37;95933.06;;;17.13;72.16
11676;BME280;5894;42.768;23.404;2022-10-15T13:00:33;95931.59;;;17.15;74.31
11676;BME280;5894;42.768;23.404;2022-10-15T13:03:28;95929.81;;;17.19;73.44
11676;BME280;5894;42.768;23.404;2022-10-15T13:06:12;95926.59;;;17.26;74.29
11676;BME280;5894;42.768;23.404;2022-10-15T13:08:43;95937.50;;;17.33;72.43
11676;BME280;5894;42.768;23.404;2022-10-15T13:11:19;95932.25;;;17.37;73.33
11676;BME280;5894;42.768;23.404;2022-10-15T13:13:48;95939.56;;;17.40;72.03
11676;BME280;5894;42.768;23.404;2022-10-15T13:16:18;95930.47;;;17.41;71.38
11676;BME280;5894;42.768;23.404;2022-10-15T13:18:48;95930.69;;;17.48;71.20
11676;BME280;5894;42.768;23.404;2022-10-15T13:21:15;95923.91;;;17.50;72.05
11676;BME280;5894;42.768;23.404;2022-10-15T13:23:46;95921.56;;;17.49;71.10
11676;BME280;5894;42.768;23.404;2022-10-15T13:26:18;95922.00;;;17.51;70.89